Time;durP1;ratioP1;P1;durP2;ratioP2;P2;SDS_P1;SDS_P2;PMS_P1;PMS_P2;Temp;Humidity;BMP_temperature;BMP_pressure;BME280_temperature;BME280_humidity;BME280_pressure;Samples;Min_cycle;Max_cycle;Signal;HPM_P1;HPM_P2
2024/01/27 00:00:39;;;;;;;15.45;2.95;;;5.00;99.90;;;;;;5109898;28;20062;-78
2024/01/27 00:03:05;;;;;;;17.23;4.80;;;5.00;99.90;;;;;;5077989;28;20064;-78
2024/01/27 00:05:31;;;;;;;14.55;3.83;;;4.90;99.90;;;;;;5094357;28;20036;-78
2024/01/27 00:07:57;;;;;;;13.63;3.25;;;4.90;99.90;;;;;;5078612;28;20043;-78
2024/01/27 00:10:22;;;;;;;17.17;3.10;;;4.90;99.90;;;;;;5096822;28;20063;-77
2024/01/27 00:12:48;;;;;;;17.33;3.45;;;4.80;99.90;;;;;;5095356;28;20036;-79
2024/01/27 00:15:13;;;;;;;13.73;2.65;;;4.70;99.90;;;;;;5095225;28;20039;-78
2024/01/27 00:17:39;;;;;;;16.35;3.22;;;4.80;99.90;;;;;;5096775;28;20090;-78
2024/01/27 00:20:06;;;;;;;17.95;4.95;;;4.70;99.90;;;;;;5096137;28;20052;-78
2024/01/27 00:22:31;;;;;;;23.65;3.50;;;4.80;99.90;;;;;;5095217;28;20032;-78
2024/01/27 00:24:57;;;;;;;18.27;3.63;;;4.70;99.90;;;;;;5095375;28;20384;-78
2024/01/27 00:27:22;;;;;;;22.20;4.85;;;4.80;99.90;;;;;;5095539;28;20032;-78
2024/01/27 00:29:48;;;;;;;13.65;2.85;;;4.70;99.90;;;;;;5096131;28;20040;-79
2024/01/27 00:32:14;;;;;;;20.92;3.35;;;4.70;99.90;;;;;;5095111;28;20036;-79
2024/01/27 00:34:39;;;;;;;16.55;4.97;;;4.60;99.90;;;;;;5094592;28;20043;-78
2024/01/27 00:37:05;;;;;;;15.25;4.65;;;4.70;99.90;;;;;;5094576;28;20094;-77
2024/01/27 00:39:32;;;;;;;15.95;3.85;;;4.70;99.90;;;;;;5097047;28;20083;-78
2024/01/27 00:41:58;;;;;;;19.63;4.75;;;4.60;99.90;;;;;;5094119;28;20032;-78
2024/01/27 00:44:24;;;;;;;14.77;4.03;;;4.50;99.90;;;;;;5094981;28;20059;-78
2024/01/27 00:46:50;;;;;;;19.45;2.88;;;4.60;99.90;;;;;;5106452;28;20043;-78
2024/01/27 00:49:15;;;;;;;19.30;4.15;;;4.50;99.90;;;;;;5091236;28;20048;-78
2024/01/27 00:51:41;;;;;;;17.17;3.53;;;4.50;99.90;;;;;;5098497;28;20036;-79
2024/01/27 00:54:06;;;;;;;22.50;5.38;;;4.60;99.90;;;;;;5096944;28;20047;-78
2024/01/27 00:56:32;;;;;;;15.50;3.28;;;4.50;99.90;;;;;;5095449;28;20047;-78
2024/01/27 00:58:57;;;;;;;19.85;4.53;;;4.50;99.90;;;;;;5077676;28;20491;-78
2024/01/27 01:01:23;;;;;;;19.52;3.30;;;4.50;99.90;;;;;;5096187;28;20034;-78
2024/01/27 01:03:49;;;;;;;24.42;4.00;;;4.40;99.90;;;;;;5094482;28;20032;-78
2024/01/27 01:06:14;;;;;;;15.63;4.45;;;4.50;99.90;;;;;;5078487;28;20469;-78
2024/01/27 01:08:40;;;;;;;17.88;3.63;;;4.30;99.90;;;;;;5094892;28;20044;-78
2024/01/27 01:11:05;;;;;;;21.15;4.55;;;4.50;99.90;;;;;;5077721;28;20487;-77
2024/01/27 01:13:31;;;;;;;12.25;3.35;;;4.50;99.90;;;;;;5094576;28;20039;-79
2024/01/27 01:15:57;;;;;;;14.18;3.42;;;4.40;99.90;;;;;;5094737;28;20112;-79
2024/01/27 01:18:22;;;;;;;19.08;3.67;;;4.50;99.90;;;;;;5096060;28;20044;-78
2024/01/27 01:20:48;;;;;;;23.80;3.67;;;4.50;99.90;;;;;;5094644;28;20495;-78
2024/01/27 01:23:14;;;;;;;16.27;3.00;;;4.50;99.90;;;;;;5094339;28;20036;-78
2024/01/27 01:25:40;;;;;;;18.45;4.50;;;4.50;99.90;;;;;;5094514;28;20064;-78
2024/01/27 01:28:06;;;;;;;17.90;3.20;;;4.30;99.90;;;;;;5095396;28;20093;-77
2024/01/27 01:30:31;;;;;;;15.20;3.28;;;4.30;99.90;;;;;;5094991;28;20627;-78
2024/01/27 01:32:57;;;;;;;20.58;3.50;;;4.40;99.90;;;;;;5096921;28;20040;-78
2024/01/27 01:35:23;;;;;;;15.63;3.45;;;4.30;99.90;;;;;;5094802;28;20047;-78
2024/01/27 01:37:48;;;;;;;26.83;5.97;;;4.40;99.90;;;;;;5078058;28;20471;-78
2024/01/27 01:40:15;;;;;;;22.58;5.25;;;4.30;99.90;;;;;;5094054;28;20048;-77
2024/01/27 01:42:41;;;;;;;25.63;4.45;;;4.40;99.90;;;;;;5094289;28;20419;-78
2024/01/27 01:45:09;;;;;;;12.85;3.25;;;4.40;99.90;;;;;;5094908;28;20043;-78
2024/01/27 01:47:35;;;;;;;13.18;3.80;;;4.30;99.90;;;;;;5096130;28;20121;-78
2024/01/27 01:50:01;;;;;;;18.95;4.10;;;4.20;99.90;;;;;;5077549;28;20446;-78
2024/01/27 01:52:27;;;;;;;13.65;3.80;;;4.30;99.90;;;;;;5078026;28;20130;-78
2024/01/27 01:54:52;;;;;;;14.98;3.22;;;4.30;99.90;;;;;;5081382;28;20086;-77
2024/01/27 01:57:18;;;;;;;14.40;3.50;;;4.40;99.90;;;;;;5098832;28;20080;-79
2024/01/27 01:59:43;;;;;;;20.95;3.28;;;4.10;99.90;;;;;;5100488;28;20036;-79
2024/01/27 02:02:09;;;;;;;15.68;3.55;;;4.20;99.90;;;;;;5100530;28;20032;-78
2024/01/27 02:04:42;;;;;;;18.25;3.08;;;4.10;99.90;;;;;;5101060;28;20384;-79
2024/01/27 02:07:08;;;;;;;22.83;4.57;;;4.30;99.90;;;;;;5099870;28;20483;-79
2024/01/27 02:09:33;;;;;;;16.98;3.75;;;4.10;99.90;;;;;;5099697;28;20040;-78
2024/01/27 02:11:59;;;;;;;19.42;3.80;;;4.10;99.90;;;;;;5082430;28;20040;-78
2024/01/27 02:14:27;;;;;;;13.90;3.35;;;4.30;99.90;;;;;;5100011;28;20039;-79
2024/01/27 02:16:53;;;;;;;16.15;4.18;;;4.10;99.90;;;;;;5098052;28;20040;-78
2024/01/27 02:19:19;;;;;;;19.77;3.80;;;4.30;99.90;;;;;;5081395;28;20043;-79
2024/01/27 02:21:44;;;;;;;18.33;3.85;;;4.30;99.90;;;;;;5098175;28;20499;-78
2024/01/27 02:24:10;;;;;;;11.35;3.50;;;4.10;99.90;;;;;;5099436;28;20071;-78
2024/01/27 02:26:36;;;;;;;21.20;3.92;;;4.20;99.90;;;;;;5097462;28;20042;-79
2024/01/27 02:29:01;;;;;;;18.10;3.97;;;4.20;99.90;;;;;;5097312;28;20090;-78
2024/01/27 02:31:27;;;;;;;23.15;3.97;;;4.20;99.90;;;;;;5097976;28;20040;-79
2024/01/27 02:33:53;;;;;;;18.83;3.75;;;4.00;99.90;;;;;;5099962;28;20036;-78
2024/01/27 02:36:18;;;;;;;20.23;3.53;;;4.00;99.90;;;;;;5081575;28;20089;-78
2024/01/27 02:38:44;;;;;;;15.45;2.78;;;4.20;99.90;;;;;;5097372;28;20079;-78
2024/01/27 02:41:11;;;;;;;21.33;4.88;;;4.30;99.90;;;;;;5082042;28;20036;-78
2024/01/27 02:43:37;;;;;;;18.58;4.20;;;4.10;99.90;;;;;;5099697;28;20055;-77
2024/01/27 02:46:03;;;;;;;21.63;3.65;;;4.00;99.90;;;;;;5097734;28;20036;-77
2024/01/27 02:48:29;;;;;;;17.83;3.40;;;4.20;99.90;;;;;;5105731;28;20084;-79
2024/01/27 02:50:55;;;;;;;10.65;3.28;;;4.20;99.90;;;;;;5132737;28;20062;-78
2024/01/27 02:53:20;;;;;;;13.18;3.80;;;4.20;99.90;;;;;;5135214;28;20091;-79
2024/01/27 02:55:46;;;;;;;16.25;4.47;;;4.20;99.90;;;;;;5111126;28;20082;-77
2024/01/27 02:58:12;;;;;;;15.88;4.88;;;4.00;99.90;;;;;;5118199;28;20035;-77
2024/01/27 03:00:37;;;;;;;11.45;2.40;;;4.20;99.90;;;;;;5118401;28;20039;-77
2024/01/27 03:03:03;;;;;;;13.93;4.25;;;4.00;99.90;;;;;;5118818;28;20035;-76
2024/01/27 03:05:29;;;;;;;14.32;3.30;;;3.90;99.90;;;;;;5118837;28;20070;-77
2024/01/27 03:07:54;;;;;;;20.67;5.13;;;3.90;99.90;;;;;;5117731;28;20540;-77
2024/01/27 03:10:20;;;;;;;21.23;4.03;;;3.90;99.90;;;;;;5118916;28;20044;-77
2024/01/27 03:12:46;;;;;;;8.32;2.85;;;4.00;99.90;;;;;;5118836;28;20047;-77
2024/01/27 03:15:12;;;;;;;11.88;3.08;;;3.80;99.90;;;;;;5118686;28;20119;-77
2024/01/27 03:17:37;;;;;;;10.80;3.35;;;4.00;99.90;;;;;;5118056;28;20093;-77
2024/01/27 03:20:03;;;;;;;13.75;3.50;;;3.90;99.90;;;;;;5119255;28;20110;-77
2024/01/27 03:22:29;;;;;;;9.23;2.60;;;4.00;99.90;;;;;;5117819;28;20039;-79
2024/01/27 03:24:55;;;;;;;12.18;3.72;;;3.80;99.90;;;;;;5117877;28;20067;-80
2024/01/27 03:27:20;;;;;;;17.20;3.53;;;4.00;99.90;;;;;;5117152;28;20065;-79
2024/01/27 03:29:46;;;;;;;19.55;4.10;;;4.00;99.90;;;;;;5117613;28;20042;-80
2024/01/27 03:32:11;;;;;;;18.13;2.95;;;4.00;99.90;;;;;;5118234;28;20047;-79
2024/01/27 03:34:44;;;;;;;13.18;3.58;;;3.80;99.90;;;;;;5117463;28;20035;-79
2024/01/27 03:37:09;;;;;;;12.85;3.00;;;4.00;99.90;;;;;;5117015;28;20035;-80
2024/01/27 03:39:35;;;;;;;19.98;3.70;;;3.80;99.90;;;;;;5116165;28;20601;-80
2024/01/27 03:42:00;;;;;;;17.77;3.55;;;3.90;99.90;;;;;;5118175;28;20191;-79
2024/01/27 03:44:26;;;;;;;9.63;2.83;;;3.80;99.90;;;;;;5116978;28;20118;-79
2024/01/27 03:46:51;;;;;;;12.48;2.75;;;4.00;99.90;;;;;;5116483;28;20035;-79
2024/01/27 03:49:17;;;;;;;10.43;3.05;;;3.70;99.90;;;;;;5117644;28;20040;-80
2024/01/27 03:51:43;;;;;;;10.75;2.80;;;3.90;99.90;;;;;;5100351;28;20074;-80
2024/01/27 03:54:08;;;;;;;16.90;3.65;;;3.80;99.90;;;;;;5117177;28;20566;-80
2024/01/27 03:56:34;;;;;;;17.85;3.97;;;3.90;99.90;;;;;;5116406;28;20043;-79
2024/01/27 03:59:00;;;;;;;11.40;3.10;;;3.70;99.90;;;;;;5116091;28;20036;-79
2024/01/27 04:01:25;;;;;;;13.35;3.25;;;3.70;99.90;;;;;;5116186;28;20039;-79
2024/01/27 04:03:51;;;;;;;17.92;4.88;;;3.70;99.90;;;;;;5118318;28;20036;-79
2024/01/27 04:06:17;;;;;;;12.32;3.30;;;3.90;99.90;;;;;;5118036;27;20057;-79
2024/01/27 04:08:43;;;;;;;13.27;2.30;;;3.80;99.90;;;;;;5115615;28;20039;-79
2024/01/27 04:11:18;;;;;;;30.45;3.03;;;3.80;99.90;;;;;;5118966;28;20043;-79
2024/01/27 04:13:43;;;;;;;15.23;2.80;;;3.70;99.90;;;;;;5117259;28;20069;-78
2024/01/27 04:16:09;;;;;;;17.88;4.25;;;3.60;99.90;;;;;;5117247;28;20410;-79
2024/01/27 04:18:35;;;;;;;17.02;4.45;;;3.70;99.90;;;;;;5115809;28;20035;-78
2024/01/27 04:21:00;;;;;;;14.13;3.42;;;3.60;99.90;;;;;;5101068;28;20603;-77
2024/01/27 04:23:26;;;;;;;18.52;4.35;;;3.80;99.90;;;;;;5131328;28;20045;-77
2024/01/27 04:25:52;;;;;;;17.77;2.75;;;3.90;99.90;;;;;;5128742;28;20036;-78
2024/01/27 04:28:17;;;;;;;12.18;3.05;;;3.90;99.90;;;;;;5117433;28;20032;-78
2024/01/27 04:30:43;;;;;;;13.00;2.35;;;3.90;99.90;;;;;;5115598;28;20062;-78
2024/01/27 04:33:09;;;;;;;15.00;3.33;;;4.00;99.90;;;;;;5116689;28;20453;-78
2024/01/27 04:35:34;;;;;;;25.73;3.88;;;3.70;99.90;;;;;;5116398;28;20525;-78
2024/01/27 04:38:00;;;;;;;19.90;3.53;;;3.90;99.90;;;;;;5115279;28;20040;-78
2024/01/27 04:40:25;;;;;;;11.75;3.03;;;3.90;99.90;;;;;;5115258;28;20494;-78
2024/01/27 04:42:51;;;;;;;13.25;2.83;;;3.70;99.90;;;;;;5115613;28;20057;-78
2024/01/27 04:45:16;;;;;;;12.45;2.83;;;3.80;99.90;;;;;;5098189;28;20038;-78
2024/01/27 04:47:42;;;;;;;18.17;3.85;;;3.70;99.90;;;;;;5116151;28;20039;-78
2024/01/27 04:50:08;;;;;;;15.15;3.10;;;3.90;99.90;;;;;;5115278;28;20046;-79
2024/01/27 04:52:33;;;;;;;10.73;3.33;;;3.90;99.90;;;;;;5114835;28;20048;-78
2024/01/27 04:54:59;;;;;;;17.50;2.85;;;3.90;99.90;;;;;;5114935;28;20070;-77
2024/01/27 04:57:25;;;;;;;12.80;4.38;;;3.70;99.90;;;;;;5115190;28;20117;-80
2024/01/27 04:59:50;;;;;;;15.27;2.53;;;3.70;99.90;;;;;;5097854;28;20043;-80
2024/01/27 05:02:17;;;;;;;13.57;2.75;;;3.80;99.90;;;;;;5115179;28;20046;-79
2024/01/27 05:04:43;;;;;;;13.77;4.07;;;3.60;99.90;;;;;;5116575;28;20084;-79
2024/01/27 05:07:08;;;;;;;12.15;3.38;;;3.80;99.90;;;;;;5115772;28;20468;-80
2024/01/27 05:09:35;;;;;;;22.60;4.28;;;3.60;99.90;;;;;;5114691;28;20043;-78
2024/01/27 05:12:01;;;;;;;15.32;3.40;;;3.80;99.90;;;;;;5114754;28;20147;-80
2024/01/27 05:14:26;;;;;;;16.73;3.63;;;3.50;99.90;;;;;;5115705;28;20655;-78
2024/01/27 05:16:52;;;;;;;13.85;2.75;;;3.70;99.90;;;;;;5114950;28;20552;-78
2024/01/27 05:19:18;;;;;;;10.68;2.30;;;3.80;99.90;;;;;;5114432;28;20460;-78
2024/01/27 05:21:44;;;;;;;13.95;3.58;;;3.60;99.90;;;;;;5114726;28;20047;-78
2024/01/27 05:24:09;;;;;;;12.38;2.60;;;3.50;99.90;;;;;;5114619;28;20028;-78
2024/01/27 05:26:35;;;;;;;18.40;3.35;;;3.60;99.90;;;;;;5114616;28;20046;-78
2024/01/27 05:29:01;;;;;;;14.73;3.40;;;3.70;99.90;;;;;;5120162;28;20644;-78
2024/01/27 05:31:26;;;;;;;16.55;2.78;;;3.60;99.90;;;;;;5122122;28;20043;-78
2024/01/27 05:33:52;;;;;;;21.27;3.30;;;3.40;99.90;;;;;;5121708;28;20040;-78
2024/01/27 05:36:18;;;;;;;10.93;2.35;;;3.70;99.90;;;;;;5121402;28;20039;-78
2024/01/27 05:38:43;;;;;;;20.27;4.70;;;3.70;99.90;;;;;;5120869;28;20035;-78
2024/01/27 05:41:09;;;;;;;12.65;3.13;;;3.60;99.90;;;;;;5120599;28;20035;-78
2024/01/27 05:43:34;;;;;;;14.35;4.93;;;3.70;99.90;;;;;;5103623;28;20051;-78
2024/01/27 05:46:00;;;;;;;13.65;3.67;;;3.60;99.90;;;;;;5121695;28;20031;-77
2024/01/27 05:48:26;;;;;;;16.95;5.45;;;3.80;99.90;;;;;;5121741;28;20447;-78
2024/01/27 05:50:59;;;;;;;12.63;2.85;;;3.60;99.90;;;;;;5120343;28;20099;-77
2024/01/27 05:53:25;;;;;;;;;;;3.80;99.90;;;;;;5121333;28;20043;-78
2024/01/27 05:55:51;;;;;;;12.23;3.13;;;3.60;99.90;;;;;;5122262;27;20404;-78
2024/01/27 05:58:17;;;;;;;18.02;3.45;;;3.80;99.90;;;;;;5103737;28;20069;-78
2024/01/27 06:00:44;;;;;;;13.80;2.92;;;3.70;99.90;;;;;;5121732;27;20043;-78
2024/01/27 06:03:10;;;;;;;12.63;3.75;;;3.50;99.90;;;;;;5120459;28;20035;-78
2024/01/27 06:05:36;;;;;;;16.02;3.08;;;3.60;99.90;;;;;;5103540;28;20079;-78
2024/01/27 06:08:01;;;;;;;15.25;3.92;;;3.70;99.90;;;;;;5121435;28;20530;-78
2024/01/27 06:10:27;;;;;;;17.15;3.42;;;3.50;99.90;;;;;;5103697;28;20035;-78
2024/01/27 06:12:53;;;;;;;13.63;3.13;;;3.70;99.90;;;;;;5120395;28;20047;-78
2024/01/27 06:15:18;;;;;;;14.35;2.50;;;3.70;99.90;;;;;;5122629;28;20040;-78
2024/01/27 06:17:44;;;;;;;12.23;4.07;;;3.80;99.90;;;;;;5121767;28;20444;-78
2024/01/27 06:20:10;;;;;;;15.82;2.78;;;3.70;99.90;;;;;;5121065;28;20505;-78
2024/01/27 06:22:35;;;;;;;10.40;2.60;;;3.50;99.90;;;;;;5120445;28;20442;-78
2024/01/27 06:25:01;;;;;;;13.82;2.75;;;3.70;99.90;;;;;;5120432;28;20031;-78
2024/01/27 06:27:27;;;;;;;11.13;3.50;;;3.40;99.90;;;;;;5120529;28;20108;-77
2024/01/27 06:29:52;;;;;;;22.83;3.80;;;3.50;99.90;;;;;;5119725;28;20046;-77
2024/01/27 06:32:18;;;;;;;17.13;2.83;;;3.70;99.90;;;;;;5120139;28;20118;-78
2024/01/27 06:34:43;;;;;;;13.73;2.55;;;3.70;99.90;;;;;;5121545;28;20093;-78
2024/01/27 06:37:09;;;;;;;19.27;3.63;;;3.70;99.90;;;;;;5120078;28;20035;-78
2024/01/27 06:39:34;;;;;;;15.77;3.45;;;3.50;99.90;;;;;;5119165;28;20043;-78
2024/01/27 06:42:00;;;;;;;14.73;3.53;;;3.40;99.90;;;;;;5116411;28;20122;-78
2024/01/27 06:44:26;;;;;;;13.77;3.20;;;3.60;99.90;;;;;;5116961;28;20411;-78
2024/01/27 06:46:51;;;;;;;12.15;3.08;;;3.70;99.90;;;;;;5099309;28;20036;-78
2024/01/27 06:49:17;;;;;;;23.17;4.43;;;3.70;99.90;;;;;;5116175;28;20444;-78
2024/01/27 06:51:43;;;;;;;14.48;2.38;;;3.40;99.90;;;;;;5114324;28;20039;-77
2024/01/27 06:54:09;;;;;;;14.98;3.35;;;3.40;99.90;;;;;;5115729;28;20075;-78
2024/01/27 06:56:35;;;;;;;18.98;3.17;;;3.70;99.90;;;;;;5113911;28;20422;-77
2024/01/27 06:59:00;;;;;;;18.58;3.17;;;3.40;99.90;;;;;;5114091;28;20036;-78
2024/01/27 07:01:26;;;;;;;15.18;3.55;;;3.70;99.90;;;;;;5114107;28;20035;-78
2024/01/27 07:03:52;;;;;;;15.43;3.72;;;3.50;99.90;;;;;;5114182;28;20131;-77
2024/01/27 07:06:17;;;;;;;10.98;2.60;;;3.50;99.90;;;;;;5116956;28;20028;-78
2024/01/27 07:08:43;;;;;;;23.00;3.72;;;3.40;99.90;;;;;;5115430;28;20122;-78
2024/01/27 07:11:08;;;;;;;25.17;3.65;;;3.60;99.90;;;;;;5114382;28;20425;-78
2024/01/27 07:13:34;;;;;;;17.77;3.63;;;3.50;99.90;;;;;;5113964;28;20123;-77
2024/01/27 07:16:00;;;;;;;18.00;3.55;;;3.70;99.90;;;;;;5116059;28;20039;-77
2024/01/27 07:18:25;;;;;;;17.92;5.15;;;3.50;99.90;;;;;;5115460;28;20046;-77
2024/01/27 07:20:51;;;;;;;18.98;3.42;;;3.40;99.90;;;;;;5113873;28;20068;-77
2024/01/27 07:23:17;;;;;;;10.93;2.80;;;3.70;99.90;;;;;;5115817;28;20031;-77
2024/01/27 07:25:44;;;;;;;11.77;3.25;;;3.70;99.90;;;;;;5115925;28;20071;-77
2024/01/27 07:28:09;;;;;;;11.05;3.00;;;3.60;99.90;;;;;;5115698;28;20035;-78
2024/01/27 07:30:36;;;;;;;14.88;3.40;;;3.70;99.90;;;;;;5114622;28;20047;-77
2024/01/27 07:33:01;;;;;;;16.05;3.70;;;3.60;99.90;;;;;;5115179;28;20103;-77
2024/01/27 07:35:27;;;;;;;16.92;3.58;;;3.30;99.90;;;;;;5098923;28;20039;-76
2024/01/27 07:37:52;;;;;;;8.32;4.43;;;3.40;99.90;;;;;;5120783;28;20058;-77
2024/01/27 07:40:19;;;;;;;18.27;4.20;;;3.70;99.90;;;;;;5101743;28;20057;-76
2024/01/27 07:42:44;;;;;;;18.75;4.10;;;3.70;99.90;;;;;;5124007;28;20036;-77
2024/01/27 07:45:10;;;;;;;16.27;2.75;;;3.70;99.90;;;;;;5119298;28;20042;-77
2024/01/27 07:47:36;;;;;;;13.63;3.15;;;3.80;99.90;;;;;;5099247;28;20043;-77
2024/01/27 07:50:01;;;;;;;15.13;3.38;;;3.60;99.90;;;;;;5117140;28;20035;-77
2024/01/27 07:52:27;;;;;;;12.02;3.63;;;3.40;99.90;;;;;;5117622;28;20035;-77
2024/01/27 07:54:54;;;;;;;16.77;3.30;;;3.80;99.90;;;;;;5116274;28;20031;-78
2024/01/27 07:57:20;;;;;;;18.58;4.25;;;3.70;99.90;;;;;;5120239;28;20039;-78
2024/01/27 07:59:46;;;;;;;17.55;3.70;;;3.80;99.90;;;;;;5121680;28;20046;-78
2024/01/27 08:02:11;;;;;;;15.95;3.40;;;3.50;99.90;;;;;;5124735;28;20036;-78
2024/01/27 08:04:38;;;;;;;21.80;4.10;;;3.60;99.90;;;;;;5124722;28;20028;-78
2024/01/27 08:07:09;;;;;;;23.75;5.95;;;3.80;99.90;;;;;;5125116;28;20114;-78
2024/01/27 08:09:35;;;;;;;15.85;4.10;;;3.60;99.90;;;;;;5125155;28;20088;-78
2024/01/27 08:12:01;;;;;;;21.23;4.35;;;3.80;99.90;;;;;;5126480;28;20430;-80
2024/01/27 08:14:29;;;;;;;14.52;3.97;;;3.90;99.90;;;;;;5122449;28;20036;-79
2024/01/27 08:16:56;;;;;;;13.95;3.45;;;3.70;99.90;;;;;;5121142;28;20110;-79
2024/01/27 08:19:22;;;;;;;26.70;4.97;;;3.90;99.90;;;;;;5119459;28;20043;-78
2024/01/27 08:21:48;;;;;;;16.42;4.82;;;4.10;99.90;;;;;;5120159;28;20549;-78
2024/01/27 08:24:16;;;;;;;32.03;7.00;;;4.00;99.90;;;;;;5121112;28;20043;-78
2024/01/27 08:26:42;;;;;;;15.20;5.40;;;4.00;99.90;;;;;;5121416;28;20380;-78
2024/01/27 08:29:09;;;;;;;17.70;5.47;;;4.40;99.90;;;;;;5120074;28;20035;-79
2024/01/27 08:31:34;;;;;;;17.45;4.75;;;4.50;99.90;;;;;;5122547;28;20044;-79
2024/01/27 08:34:00;;;;;;;15.27;5.20;;;4.50;99.90;;;;;;5120565;28;20507;-79
2024/01/27 08:36:26;;;;;;;20.35;7.18;;;4.50;99.90;;;;;;5102092;28;20035;-79
2024/01/27 08:38:51;;;;;;;24.50;5.63;;;4.50;99.90;;;;;;5118575;28;20038;-78
2024/01/27 08:41:17;;;;;;;26.77;6.72;;;4.50;99.90;;;;;;5116137;28;20085;-79
2024/01/27 08:43:43;;;;;;;17.98;5.53;;;4.60;99.90;;;;;;5117191;28;20459;-78
2024/01/27 08:46:11;;;;;;;25.85;5.80;;;4.60;99.90;;;;;;5119055;28;20059;-79
2024/01/27 08:48:37;;;;;;;15.88;4.90;;;4.50;99.90;;;;;;5118471;28;20467;-79
2024/01/27 08:51:04;;;;;;;24.48;7.28;;;4.70;99.90;;;;;;5115728;28;20032;-79
2024/01/27 08:53:29;;;;;;;15.98;5.07;;;4.70;99.90;;;;;;5101049;28;20039;-79
2024/01/27 08:55:55;;;;;;;19.15;5.28;;;4.60;99.90;;;;;;5118495;28;20031;-78
2024/01/27 08:58:20;;;;;;;19.55;5.43;;;4.60;99.90;;;;;;5115553;28;20044;-78
2024/01/27 09:00:46;;;;;;;17.50;6.15;;;4.80;99.90;;;;;;5117321;28;20042;-78
2024/01/27 09:03:14;;;;;;;20.67;6.00;;;4.80;99.90;;;;;;5119573;28;20084;-79
2024/01/27 09:05:41;;;;;;;21.13;8.40;;;4.80;99.90;;;;;;5116759;28;20091;-80
2024/01/27 09:08:07;;;;;;;17.02;6.15;;;4.90;99.90;;;;;;5117986;28;20054;-80
2024/01/27 09:10:33;;;;;;;16.75;6.55;;;4.70;99.90;;;;;;5098878;28;20057;-80
2024/01/27 09:12:58;;;;;;;20.20;6.78;;;4.90;99.90;;;;;;5116751;28;20039;-80
2024/01/27 09:15:24;;;;;;;18.95;6.40;;;4.90;99.90;;;;;;5117950;28;20044;-80
2024/01/27 09:17:50;;;;;;;18.05;6.50;;;5.00;99.90;;;;;;5117844;28;20047;-80
2024/01/27 09:20:15;;;;;;;18.95;6.50;;;5.00;99.90;;;;;;5119848;28;20039;-81
2024/01/27 09:22:41;;;;;;;19.98;7.55;;;4.90;99.90;;;;;;5120660;28;20039;-80
2024/01/27 09:25:08;;;;;;;22.27;8.55;;;5.00;99.90;;;;;;5114854;28;20028;-79
2024/01/27 09:27:34;;;;;;;18.58;7.15;;;5.00;99.90;;;;;;5117474;28;20075;-80
2024/01/27 09:29:59;;;;;;;20.70;7.05;;;5.20;99.90;;;;;;5098586;28;20410;-79
2024/01/27 09:32:25;;;;;;;21.08;7.40;;;5.30;99.90;;;;;;5115536;28;20082;-78
2024/01/27 09:34:53;;;;;;;20.27;9.57;;;5.00;99.90;;;;;;5113957;28;20176;-79
2024/01/27 09:37:19;;;;;;;17.85;7.60;;;5.20;99.90;;;;;;5114237;28;20110;-78
2024/01/27 09:39:44;;;;;;;19.70;8.90;;;5.10;99.90;;;;;;5117272;28;20067;-79
2024/01/27 09:42:14;;;;;;;27.33;8.10;;;5.30;99.90;;;;;;5099097;28;20035;-79
2024/01/27 09:44:47;;;;;;;30.58;7.80;;;5.20;99.90;;;;;;5098252;28;20028;-79
2024/01/27 09:47:13;;;;;;;29.08;7.15;;;5.30;99.90;;;;;;5116966;28;20039;-79
2024/01/27 09:49:41;;;;;;;22.63;8.13;;;5.40;99.90;;;;;;5116265;28;20044;-80
2024/01/27 09:52:08;;;;;;;19.20;6.57;;;5.50;99.90;;;;;;5122321;28;20089;-80
2024/01/27 09:54:37;;;;;;;16.25;6.60;;;5.60;99.90;;;;;;5103827;28;20403;-81
2024/01/27 09:57:03;;;;;;;20.90;8.30;;;5.40;99.90;;;;;;5101826;28;20055;-78
2024/01/27 09:59:29;;;;;;;16.13;6.75;;;5.60;99.90;;;;;;5115890;28;20036;-79
2024/01/27 10:01:56;;;;;;;19.98;8.10;;;5.40;99.90;;;;;;5117413;28;20050;-79
2024/01/27 10:04:25;;;;;;;15.32;6.90;;;5.60;99.90;;;;;;5125430;28;20035;-79
2024/01/27 10:06:51;;;;;;;15.95;6.50;;;5.70;99.90;;;;;;5129351;28;20050;-79
2024/01/27 10:09:17;;;;;;;20.25;6.40;;;5.60;99.90;;;;;;5115824;28;20043;-78
2024/01/27 10:11:47;;;;;;;22.98;8.32;;;5.70;99.90;;;;;;5101843;28;20434;-79
2024/01/27 10:14:13;;;;;;;18.63;6.53;;;5.60;99.90;;;;;;5120046;28;20047;-80
2024/01/27 10:16:43;;;;;;;20.90;8.38;;;5.80;99.90;;;;;;5121484;28;20043;-78
2024/01/27 10:19:17;;;;;;;16.08;6.60;;;5.70;99.90;;;;;;5115664;28;20054;-75
2024/01/27 10:21:43;;;;;;;;;;;5.70;99.90;;;;;;5114441;28;20042;-75
2024/01/27 10:24:09;;;;;;;27.70;8.98;;;5.70;99.90;;;;;;5113210;28;19916;-75
2024/01/27 10:26:35;;;;;;;21.88;6.95;;;5.90;99.90;;;;;;5113221;28;20039;-75
2024/01/27 10:29:01;;;;;;;14.00;6.45;;;5.90;99.90;;;;;;5096865;28;20043;-75
2024/01/27 10:31:33;;;;;;;24.75;6.57;;;5.80;99.90;;;;;;5114169;28;20062;-75
2024/01/27 10:34:00;;;;;;;15.52;5.97;;;6.10;99.90;;;;;;5114106;28;20085;-75
2024/01/27 10:36:26;;;;;;;22.83;7.65;;;6.10;99.90;;;;;;5113776;28;20043;-75
2024/01/27 10:38:52;;;;;;;15.85;5.93;;;6.10;99.90;;;;;;5096540;28;20032;-76
2024/01/27 10:41:27;;;;;;;15.82;7.95;;;6.20;99.90;;;;;;5114889;28;20063;-76
2024/01/27 10:43:54;;;;;;;30.42;9.13;;;6.10;99.90;;;;;;5113718;28;20516;-76
2024/01/27 10:46:21;;;;;;;24.92;7.75;;;6.30;99.90;;;;;;5113546;28;20032;-75
2024/01/27 10:48:51;;;;;;;20.10;9.07;;;6.20;99.90;;;;;;5114440;28;20070;-75
2024/01/27 10:51:23;;;;;;;22.75;6.43;;;6.30;99.90;;;;;;5113767;28;20036;-76
2024/01/27 10:53:51;;;;;;;19.08;6.68;;;6.30;99.90;;;;;;5113446;28;20445;-76
2024/01/27 10:56:19;;;;;;;19.40;6.18;;;6.50;99.90;;;;;;5113467;28;20529;-76
2024/01/27 10:58:47;;;;;;;17.63;5.82;;;6.50;99.90;;;;;;5112937;28;20039;-75
2024/01/27 11:01:13;;;;;;;17.50;6.22;;;6.50;99.90;;;;;;5112838;28;20071;-76
2024/01/27 11:03:40;;;;;;;21.05;6.55;;;6.70;99.90;;;;;;5096458;28;20043;-75
2024/01/27 11:06:06;;;;;;;16.13;5.60;;;6.60;99.90;;;;;;5113275;28;20036;-78
2024/01/27 11:08:33;;;;;;;19.70;5.60;;;6.70;99.90;;;;;;5114321;28;20035;-76
2024/01/27 11:11:00;;;;;;;20.65;5.45;;;6.60;99.90;;;;;;5112899;28;20067;-75
2024/01/27 11:13:29;;;;;;;18.50;5.65;;;6.80;99.90;;;;;;5114457;28;20043;-76
2024/01/27 11:15:56;;;;;;;18.45;5.32;;;6.80;99.90;;;;;;5113220;28;20047;-76
2024/01/27 11:18:22;;;;;;;17.70;6.80;;;7.00;99.90;;;;;;5112862;28;20071;-76
2024/01/27 11:20:47;;;;;;;15.50;5.00;;;6.90;99.90;;;;;;5112700;28;20075;-76
2024/01/27 11:23:14;;;;;;;20.90;6.68;;;7.00;99.90;;;;;;5113167;28;20096;-78
2024/01/27 11:25:40;;;;;;;21.20;6.13;;;7.00;99.90;;;;;;5094914;28;20040;-76
2024/01/27 11:28:16;;;;;;;24.67;6.80;;;7.10;99.90;;;;;;5112724;28;20502;-77
2024/01/27 11:30:49;;;;;;;14.05;5.00;;;7.10;99.90;;;;;;5114538;28;20156;-77
2024/01/27 11:33:15;;;;;;;24.83;6.60;;;7.10;99.90;;;;;;5113219;28;20043;-77
2024/01/27 11:35:40;;;;;;;15.43;5.43;;;7.10;99.90;;;;;;5112683;28;20288;-76
2024/01/27 11:38:06;;;;;;;18.60;6.15;;;7.10;99.90;;;;;;5095209;28;20040;-77
2024/01/27 11:40:33;;;;;;;20.80;5.65;;;7.20;99.90;;;;;;5112479;28;20042;-77
2024/01/27 11:43:01;;;;;;;15.25;5.05;;;7.20;99.90;;;;;;5095692;28;20039;-77
2024/01/27 11:45:30;;;;;;;16.27;4.75;;;7.30;99.90;;;;;;5114232;27;20039;-77
2024/01/27 11:47:56;;;;;;;13.77;5.13;;;7.40;99.90;;;;;;5112330;28;20507;-77
2024/01/27 11:50:22;;;;;;;17.85;5.45;;;7.40;99.90;;;;;;5095336;28;20483;-77
2024/01/27 11:52:49;;;;;;;13.95;4.28;;;7.30;99.90;;;;;;5112722;28;20383;-77
2024/01/27 11:55:15;;;;;;;18.38;5.97;;;7.40;99.90;;;;;;5112283;28;20564;-77
2024/01/27 11:57:42;;;;;;;17.30;4.93;;;7.50;99.90;;;;;;5112227;28;20084;-77
2024/01/27 12:00:09;;;;;;;22.30;5.47;;;7.50;99.90;;;;;;5112281;28;20479;-77
2024/01/27 12:02:35;;;;;;;21.42;5.18;;;7.40;99.90;;;;;;5113908;28;20405;-77
2024/01/27 12:05:01;;;;;;;18.02;5.82;;;7.40;99.90;;;;;;5113577;28;20043;-77
2024/01/27 12:07:27;;;;;;;17.80;5.35;;;7.50;99.90;;;;;;5113173;28;20172;-77
2024/01/27 12:09:54;;;;;;;14.40;5.47;;;7.50;99.90;;;;;;5111979;28;20044;-77
2024/01/27 12:12:20;;;;;;;19.25;5.28;;;7.60;99.90;;;;;;5112055;28;20164;-77
2024/01/27 12:14:50;;;;;;;19.70;5.13;;;7.60;99.90;;;;;;5111860;28;20054;-77
2024/01/27 12:17:17;;;;;;;14.07;5.30;;;7.60;99.90;;;;;;5111753;28;20044;-77
2024/01/27 12:19:47;;;;;;;17.58;5.07;;;7.60;99.90;;;;;;5094730;28;20040;-77
2024/01/27 12:22:27;;;;;;;13.60;6.15;;;7.70;99.90;;;;;;5112174;28;20031;-77
2024/01/27 12:25:08;;;;;;;18.48;5.18;;;7.70;99.90;;;;;;5111882;28;20036;-76
2024/01/27 12:27:33;;;;;;;15.48;5.28;;;7.70;99.90;;;;;;5111760;28;20036;-77
2024/01/27 12:30:00;;;;;;;16.35;6.05;;;7.70;99.90;;;;;;5094710;28;20410;-76
2024/01/27 12:32:26;;;;;;;15.18;5.72;;;7.80;99.90;;;;;;5111551;28;20090;-77
2024/01/27 12:34:52;;;;;;;17.73;5.78;;;7.80;99.90;;;;;;5111455;28;20047;-77
2024/01/27 12:37:20;;;;;;;12.68;4.60;;;7.80;99.90;;;;;;5112875;28;20400;-77
2024/01/27 12:39:46;;;;;;;19.88;4.72;;;7.90;99.90;;;;;;5111413;28;20040;-76
2024/01/27 12:42:12;;;;;;;21.00;5.38;;;7.80;99.90;;;;;;5111501;28;20056;-77